Nearby METAR Reports

METAR is the scheduled surface weather observation taken hourly at civil and military airport locations.

METAR is an acronym from the French language and roughly translates as Aviation Routine Weather Report.

 

EGPL - Benbecula Island, United Kingdom
Distance from station: WNW 41mi, 66km
Updated: 17/11/2019 07:20
Clear
Clear
 Wind from NNW
Wind: NNW 9 mph , 15 km/h
Temperature: 6°C
Wind Chill: 3°C
Dew Point: 3°C
Humidity: 81%
Barometer: 1014 hPa
Clouds: Clear
Visibility: 6 miles , 10 km
2019/11/17 07:20 EGPL 170720Z AUTO 34008KT 9999 NCD 06/03 Q1014
EGPU - Tiree Island, United Kingdom
Distance from station: SSW 56mi, 90km
Updated: 17/11/2019 07:20
Light rain, Mostly cloudy
Light rain, Mostly cloudy
 Wind from N
Wind: N 24 mph , 39 km/h
Temperature: 6°C
Wind Chill: 1°C
Dew Point: 5°C
Humidity: 93%
Barometer: 1014 hPa
Summary: Light rain
Clouds: Mostly cloudy
Visibility: 6 miles , 10 km
Cloud details: Partly cloudy 396 m
Mostly cloudy 640 m
2019/11/17 07:20 EGPU 170720Z AUTO 01021KT 250V040 9999 -RA SCT013/// BKN021/// 06/05 Q1014
 
EGEO - Oban Airport, United Kingdom
Distance from station: SE 65mi, 105km
Updated: 16/11/2019 13:20
NOT Current
Few Clouds
Few Clouds
 Wind from E
Wind: E 6 mph , 9 km/h
Temperature: 5°C
Wind Chill: 3°C
Dew Point: 2°C
Humidity: 81%
Barometer: 1009 hPa
Clouds: Few Clouds
Visibility: 6 miles , 10 km
Cloud details: Few Clouds 549 m
2019/11/16 13:20 EGEO 161320Z 10005KT 9999 FEW018 05/02 Q1009
EGPO - Stornoway, United Kingdom
Distance from station: 0 66mi, 106km
Updated: 17/11/2019 07:20
Mostly cloudy
Mostly cloudy
 Wind from NW
Wind: NW 7 mph , 11 km/h
Temperature: 5°C
Wind Chill: 2°C
Dew Point: 3°C
Humidity: 87%
Barometer: 1014 hPa
Clouds: Mostly cloudy
Visibility: 6 miles , 10 km
Cloud details: Partly cloudy 1128 m
Mostly cloudy 1311 m
2019/11/17 07:20 EGPO 170720Z AUTO 31006KT 9999 SCT037/// BKN043/// 05/03 Q1014
 
EGPE - Inverness/Dalcro, United Kingdom
Distance from station: ENE 88mi, 141km
Updated: 17/11/2019 07:20
Light rain, Mostly cloudy
Light rain, Mostly cloudy
 Wind from SW
Wind: SW 5 mph , 7 km/h
Temperature: 2°C
Wind Chill: 0°C
Dew Point: 2°C
Humidity: 100%
Barometer: 1013 hPa
Summary: Light rain
Clouds: Mostly cloudy
Visibility: 6 miles , 10 km
Cloud details: Few Clouds 914 m
Mostly cloudy 1341 m
2019/11/17 07:20 EGPE 170720Z 22004KT 9999 -RA FEW030 BKN044 02/02 Q1013
EGQA - Tain Range (saws, United Kingdom
Distance from station: ENE 97mi, 156km
Updated: 14/11/2019 14:50
NOT Current
Nearby showers, Partly cloudy
Nearby showers, Partly cloudy
 Wind from WNW
Wind: WNW 17 mph , 28 km/h
Summary: Nearby Showers
Clouds: Partly cloudy
Visibility: 6 miles , 10 km
Cloud details: Few Clouds 366 m
Partly cloudy 518 m
2019/11/14 14:50 EGQA 141450Z 30015KT 9999 VCSH FEW012 SCT017CB 04/// Q1012 RMK WHT
 
EGQK - Kinloss Raf, United Kingdom
Distance from station: ENE 107mi, 171km
Updated: 17/11/2019 06:50
Overcast
Overcast
 Wind from WSW
Wind: WSW 5 mph , 7 km/h
Temperature: 1°C
Wind Chill: -2°C
Dew Point: 0°C
Humidity: 93%
Barometer: 1012 hPa
Clouds: Overcast
Visibility: 6 miles , 10 km
Cloud details: Overcast 1829 m
2019/11/17 06:50 EGQK 170650Z AUTO 24004KT 9999 OVC060/// 01/00 Q1012
EGPI - Islay/Port Ellen, United Kingdom
Distance from station: S 110mi, 177km
Updated: 17/11/2019 07:20
Clear
Clear
 Wind from NE
Wind: NE 2 mph , 4 km/h
Temperature: 2°C
Dew Point: 1°C
Humidity: 93%
Barometer: 1013 hPa
Clouds: Clear
Visibility: 6 miles , 10 km
2019/11/17 07:20 EGPI 170720Z AUTO 05002KT 9999 NCD 02/01 Q1013
 
EGQS - Lossiemouth Raf, United Kingdom
Distance from station: ENE 117mi, 188km
Updated: 17/11/2019 06:50
Clear
Clear
 Wind from SW
Wind: SW 7 mph , 11 km/h
Temperature: 1°C
Wind Chill: -2°C
Dew Point: 1°C
Humidity: 100%
Barometer: 1012 hPa
Summary: Clear
Visibility: greater than 7 miles , 10 km
2019/11/17 06:50 EGQS 170650Z 23006KT CAVOK 01/01 Q1012 RMK BLU
EGPF - Glasgow Airport, United Kingdom
Distance from station: SE 121mi, 195km
Updated: 17/11/2019 07:20
Shallow fog, Partly cloudy
Shallow fog, Partly cloudy
 Wind from varies
Wind: varies 1 mph , 2 km/h
Temperature: -2°C
Dew Point: -2°C
Humidity: 100%
Barometer: 1013 hPa
Summary: Shallow Fog
Clouds: Partly cloudy
Visibility: 6 miles , 9 km
Cloud details: Partly cloudy 91 m
2019/11/17 07:20 EGPF 170720Z VRB01KT 9000 R23/0900 MIFG SCT003 M02/M02 Q1013
 
EGEC - Campbeltown, United Kingdom
Distance from station: SSE 129mi, 207km
Updated: 16/11/2019 07:20
NOT Current
Few Clouds
Few Clouds
 Wind from ESE
Wind: ESE 5 mph , 7 km/h
Temperature: 1°C
Wind Chill: -2°C
Dew Point: 0°C
Humidity: 93%
Barometer: 1010 hPa
Clouds: Few Clouds
Visibility: 6 miles , 10 km
Cloud details: Few Clouds 1372 m
2019/11/16 07:20 EGEC 160720Z 11004KT 9999 FEW045 01/M00 Q1010
EGPN - Dundee/Riverside, United Kingdom
Distance from station: ESE 137mi, 221km
Updated: 16/11/2019 15:50
NOT Current
Light rain, Partly cloudy
Light rain, Partly cloudy
 Wind from calm
Wind: Calm
Temperature: 5°C
Dew Point: 4°C
Humidity: 93%
Barometer: 1008 hPa
Summary: Light rain
Clouds: Partly cloudy
Visibility: 6 miles , 10 km
Cloud details: Partly cloudy 610 m
Partly cloudy 1219 m
2019/11/16 15:50 EGPN 161550Z 00000KT 9999 -RA SCT020 SCT040 05/04 Q1008
 
EGPK - Prestwick(Civ/Na, United Kingdom
Distance from station: SSE 139mi, 224km
Updated: 17/11/2019 07:20
Few Clouds
Few Clouds
 Wind from calm
Wind: Calm
Temperature: 1°C
Dew Point: 0°C
Humidity: 93%
Barometer: 1013 hPa
Clouds: Few Clouds
Visibility: 6 miles , 10 km
Cloud details: Few Clouds 1067 m
2019/11/17 07:20 EGPK 170720Z 00000KT 9999 FEW035 01/M00 Q1013
EGQL - Leuchars Raf, United Kingdom
Distance from station: ESE 145mi, 233km
Updated: 17/11/2019 06:50
Clear
Clear
 Wind from W
Wind: W 5 mph , 7 km/h
Temperature: 1°C
Wind Chill: -2°C
Dew Point: 1°C
Humidity: 100%
Barometer: 1012 hPa
Summary: Clear
Visibility: greater than 7 miles , 10 km
2019/11/17 06:50 EGQL 170650Z 28004KT CAVOK 01/01 Q1012 BLU
 
EGPH - Edinburgh Airpor, United Kingdom
Distance from station: SE 145mi, 234km
Updated: 17/11/2019 07:20
Clear
Clear
 Wind from W
Wind: W 2 mph , 4 km/h
Temperature: -1°C
Dew Point: -1°C
Humidity: 100%
Barometer: 1013 hPa
Summary: Clear
Visibility: greater than 7 miles , 10 km
2019/11/17 07:20 EGPH 170720Z 27002KT CAVOK M01/M01 Q1013
EGPC - Wick, United Kingdom
Distance from station: NE 146mi, 234km
Updated: 17/11/2019 07:20
Light rain, Overcast
Light rain, Overcast
 Wind from W
Wind: W 7 mph , 11 km/h
Temperature: 3°C
Wind Chill: 0°C
Dew Point: 2°C
Humidity: 93%
Barometer: 1012 hPa
Summary: Light rain
Clouds: Overcast
Visibility: 6 miles , 10 km
Cloud details: Mostly cloudy 884 m
Overcast 1097 m
2019/11/17 07:20 EGPC 170720Z AUTO 27006KT 9999 -RA BKN029/// OVC036/// 03/02 Q1012

-

free counters
QR Code Twitter Scottish Weather Network UK Weather Network
Argyll House B & B

Argyll House B & B is situated in North West Skye and is the perfect base to see all that the Isle of Skye has to offer. We are just about full for 2019. Bookings are been taken for 2020.